Time;durP1;ratioP1;P1;durP2;ratioP2;P2;SDS_P1;SDS_P2;PMS_P1;PMS_P2;Temp;Humidity;BMP_temperature;BMP_pressure;BME280_temperature;BME280_humidity;BME280_pressure;Samples;Min_cycle;Max_cycle;Signal;HPM_P1;HPM_P2
2021/01/29 00:00:30;;;;;;;4.65;3.67;;;1.70;99.90;;;;;;5055484;28;20025;-80
2021/01/29 00:02:57;;;;;;;5.07;3.72;;;1.70;99.90;;;;;;5055484;28;20522;-83
2021/01/29 00:05:26;;;;;;;3.90;3.50;;;1.60;99.90;;;;;;5055259;28;20483;-82
2021/01/29 00:07:51;;;;;;;4.18;3.42;;;1.60;99.90;;;;;;5060981;28;20013;-81
2021/01/29 00:10:18;;;;;;;6.40;3.67;;;1.60;99.90;;;;;;5069312;28;20031;-80
2021/01/29 00:12:44;;;;;;;5.97;4.00;;;1.50;99.90;;;;;;5073557;28;20036;-82
2021/01/29 00:15:16;;;;;;;6.43;3.60;;;1.40;99.90;;;;;;5071422;28;20084;-80
2021/01/29 00:17:42;;;;;;;4.57;3.75;;;1.40;99.90;;;;;;5057029;28;20064;-81
2021/01/29 00:20:12;;;;;;;4.68;3.95;;;1.30;99.90;;;;;;5056402;28;20057;-81
2021/01/29 00:22:38;;;;;;;4.82;3.50;;;1.10;99.90;;;;;;5056301;28;20072;-81
2021/01/29 00:25:10;;;;;;;6.32;4.00;;;1.10;99.90;;;;;;5054584;28;20531;-81
2021/01/29 00:27:37;;;;;;;5.43;4.30;;;1.00;99.90;;;;;;5054586;28;20025;-78
2021/01/29 00:30:05;;;;;;;5.00;3.83;;;0.90;99.90;;;;;;5055719;28;20040;-78
2021/01/29 00:32:31;;;;;;;5.10;4.32;;;0.90;99.90;;;;;;5055892;28;20055;-78
2021/01/29 00:34:57;;;;;;;5.68;4.47;;;0.90;99.90;;;;;;5053917;28;20056;-78
2021/01/29 00:37:23;;;;;;;6.20;4.40;;;0.80;99.90;;;;;;5052989;28;20056;-78
2021/01/29 00:39:49;;;;;;;8.07;3.95;;;0.80;99.90;;;;;;5053954;28;20455;-78
2021/01/29 00:42:15;;;;;;;6.43;4.32;;;0.70;99.90;;;;;;5053935;28;20029;-79
2021/01/29 00:44:40;;;;;;;5.95;4.35;;;0.70;99.90;;;;;;5053848;28;20102;-79
2021/01/29 00:47:06;;;;;;;5.10;4.00;;;0.70;99.90;;;;;;5052897;28;20104;-78
2021/01/29 00:49:32;;;;;;;6.35;4.13;;;0.70;99.90;;;;;;5053526;28;20432;-77
2021/01/29 00:51:58;;;;;;;5.40;3.97;;;0.60;99.90;;;;;;5053536;28;20079;-77
2021/01/29 00:54:24;;;;;;;5.70;4.40;;;0.60;99.90;;;;;;5053275;28;20028;-76
2021/01/29 00:56:49;;;;;;;4.43;3.90;;;0.60;99.90;;;;;;5053511;28;20509;-77
2021/01/29 00:59:15;;;;;;;6.63;3.88;;;0.50;99.90;;;;;;5053478;28;20102;-77
2021/01/29 01:01:41;;;;;;;6.57;4.10;;;0.50;99.90;;;;;;5053320;28;20049;-77
2021/01/29 01:04:06;;;;;;;6.03;3.95;;;0.50;99.90;;;;;;5052192;28;20496;-77
2021/01/29 01:06:32;;;;;;;6.72;3.60;;;0.40;99.90;;;;;;5053451;28;20139;-78
2021/01/29 01:08:58;;;;;;;6.40;4.20;;;0.40;99.90;;;;;;5053583;28;20028;-77
2021/01/29 01:11:23;;;;;;;5.38;3.67;;;0.40;99.90;;;;;;5053252;28;20029;-78
2021/01/29 01:13:49;;;;;;;4.85;3.95;;;0.30;99.90;;;;;;5053705;28;20036;-78
2021/01/29 01:16:15;;;;;;;4.32;3.63;;;0.30;99.90;;;;;;5052083;28;20029;-78
2021/01/29 01:18:41;;;;;;;5.07;3.75;;;0.30;99.90;;;;;;5053211;28;20533;-78
2021/01/29 01:21:07;;;;;;;6.70;4.57;;;0.30;99.90;;;;;;5053010;28;20017;-78
2021/01/29 01:23:33;;;;;;;7.22;4.55;;;0.30;99.90;;;;;;5053807;28;20067;-81
2021/01/29 01:25:58;;;;;;;4.68;4.10;;;0.20;99.90;;;;;;5054362;28;20392;-81
2021/01/29 01:28:24;;;;;;;6.72;4.07;;;0.20;99.90;;;;;;5054530;28;20048;-81
2021/01/29 01:30:50;;;;;;;5.15;3.60;;;0.20;99.90;;;;;;5053331;28;20027;-82
2021/01/29 01:33:16;;;;;;;5.18;4.07;;;0.20;99.90;;;;;;5054432;28;20079;-82
2021/01/29 01:35:41;;;;;;;6.20;4.28;;;0.10;99.90;;;;;;5054336;28;20031;-81
2021/01/29 01:38:07;;;;;;;6.13;4.60;;;0.10;99.90;;;;;;5054336;28;20102;-81
2021/01/29 01:40:40;;;;;;;6.85;4.25;;;0.10;99.90;;;;;;5054139;28;20086;-81
2021/01/29 01:43:06;;;;;;;5.63;4.45;;;0.10;99.90;;;;;;5052915;28;20086;-78
2021/01/29 01:45:31;;;;;;;5.43;4.22;;;0.10;99.90;;;;;;5052661;28;20119;-79
2021/01/29 01:48:06;;;;;;;6.20;4.65;;;0.10;99.90;;;;;;5052492;28;20033;-79
2021/01/29 01:50:34;;;;;;;7.55;4.90;;;0.10;99.90;;;;;;5052633;28;20025;-78
2021/01/29 01:53:05;;;;;;;6.90;4.72;;;0.10;99.90;;;;;;5052592;28;20029;-78
2021/01/29 01:55:35;;;;;;;5.55;4.47;;;0.10;99.90;;;;;;5051276;28;20036;-78
2021/01/29 01:58:01;;;;;;;6.60;4.80;;;0.10;99.90;;;;;;5051561;28;20028;-78
2021/01/29 02:00:31;;;;;;;7.70;4.80;;;0.00;99.90;;;;;;5052160;28;20029;-78
2021/01/29 02:03:25;;;;;;;6.47;5.00;;;0.00;99.90;;;;;;5050905;28;20055;-78
2021/01/29 02:05:51;;;;;;;6.22;4.35;;;0.00;99.90;;;;;;5051325;28;20040;-78
2021/01/29 02:08:17;;;;;;;7.47;5.43;;;0.00;99.90;;;;;;5052341;28;20025;-78
2021/01/29 02:10:44;;;;;;;8.07;5.68;;;0.00;99.90;;;;;;5052458;28;20040;-78
2021/01/29 02:13:10;;;;;;;8.93;5.80;;;0.00;99.90;;;;;;5052258;28;20032;-81
2021/01/29 02:15:41;;;;;;;7.90;5.90;;;0.00;99.90;;;;;;5052239;28;20029;-78
2021/01/29 02:18:36;;;;;;;8.43;5.68;;;0.00;99.90;;;;;;5052930;28;20056;-80
2021/01/29 02:21:26;;;;;;;7.88;5.78;;;0.00;99.90;;;;;;5053423;28;20067;-80
2021/01/29 02:23:51;;;;;;;7.68;5.60;;;0.00;99.90;;;;;;5052096;28;20116;-80
2021/01/29 02:26:53;;;;;;;8.70;5.78;;;0.00;99.90;;;;;;5053583;28;20526;-81
2021/01/29 02:29:46;;;;;;;7.80;5.50;;;0.10;99.90;;;;;;5053513;28;20025;-81
2021/01/29 02:32:40;;;;;;;7.53;5.22;;;0.10;99.90;;;;;;5052140;28;20022;-81
2021/01/29 02:35:27;;;;;;;8.32;5.35;;;0.10;99.90;;;;;;5053119;28;20029;-81
2021/01/29 02:38:23;;;;;;;9.15;5.50;;;0.00;99.90;;;;;;5052371;28;20025;-78
2021/01/29 02:41:13;;;;;;;8.00;4.97;;;0.10;99.90;;;;;;5052029;28;20113;-78
2021/01/29 02:44:00;;;;;;;6.43;5.03;;;0.10;99.90;;;;;;5050891;28;20036;-78
2021/01/29 02:46:47;;;;;;;6.80;4.78;;;0.10;99.90;;;;;;5052113;28;20363;-78
2021/01/29 02:49:15;;;;;;;6.80;5.45;;;0.10;99.90;;;;;;5050689;28;20067;-77
2021/01/29 02:51:54;;;;;;;8.43;4.95;;;0.00;99.90;;;;;;5050389;28;20023;-77
2021/01/29 02:54:34;;;;;;;8.68;5.03;;;0.00;99.90;;;;;;5051748;28;20030;-77
2021/01/29 02:57:03;;;;;;;6.85;5.10;;;0.00;99.90;;;;;;5051974;28;20026;-78
2021/01/29 02:59:42;;;;;;;6.97;4.57;;;0.00;99.90;;;;;;5051722;28;20106;-78
2021/01/29 03:02:14;;;;;;;7.13;4.70;;;-0.10;99.90;;;;;;5051972;28;20128;-78
2021/01/29 03:05:03;;;;;;;6.63;4.43;;;-0.10;99.90;;;;;;5051738;28;20076;-77
2021/01/29 03:07:39;;;;;;;6.80;4.60;;;-0.10;99.90;;;;;;5048477;28;20047;-77
2021/01/29 03:10:34;;;;;;;6.82;4.30;;;-0.10;99.90;;;;;;5053916;28;20017;-77
2021/01/29 03:13:06;;;;;;;7.78;4.72;;;-0.10;99.90;;;;;;5055938;28;20100;-78
2021/01/29 03:16:04;;;;;;;5.00;3.88;;;-0.20;99.90;;;;;;5055253;28;20021;-77
2021/01/29 03:18:35;;;;;;;8.70;4.38;;;-0.20;99.90;;;;;;5052180;28;20033;-78
2021/01/29 03:21:15;;;;;;;6.55;4.78;;;-0.20;99.90;;;;;;5055416;28;20100;-77
2021/01/29 03:23:48;;;;;;;5.80;4.43;;;-0.30;99.90;;;;;;5055492;28;20027;-77
2021/01/29 03:26:27;;;;;;;5.45;4.10;;;-0.30;99.90;;;;;;5054085;28;20025;-77
2021/01/29 03:28:57;;;;;;;5.82;4.40;;;-0.30;99.90;;;;;;5053886;28;20353;-77
2021/01/29 03:31:25;;;;;;;5.88;4.03;;;-0.30;99.90;;;;;;5053961;28;20360;-77
2021/01/29 03:34:04;;;;;;;6.97;4.05;;;-0.30;99.90;;;;;;5055087;28;20025;-78
2021/01/29 03:36:37;;;;;;;6.20;4.25;;;-0.30;99.90;;;;;;5053891;28;20422;-77
2021/01/29 03:39:22;;;;;;;6.00;4.22;;;-0.40;99.90;;;;;;5053884;28;20031;-77
2021/01/29 03:41:56;;;;;;;5.95;4.43;;;-0.40;99.90;;;;;;5053773;28;20502;-77
2021/01/29 03:44:22;;;;;;;5.00;4.10;;;-0.40;99.90;;;;;;5054891;28;20029;-78
2021/01/29 03:47:01;;;;;;;6.28;4.18;;;-0.40;99.90;;;;;;5054943;28;20078;-77
2021/01/29 03:49:33;;;;;;;9.35;4.40;;;-0.40;99.90;;;;;;5054967;28;20049;-77
2021/01/29 03:52:34;;;;;;;6.10;4.40;;;-0.50;99.90;;;;;;5054805;28;20078;-77
2021/01/29 03:55:18;;;;;;;6.68;4.20;;;-0.50;99.90;;;;;;5043744;28;20041;-78
2021/01/29 03:58:10;;;;;;;8.25;4.80;;;-0.50;99.90;;;;;;5054932;28;20021;-78
2021/01/29 04:00:41;;;;;;;6.13;4.10;;;-0.50;99.90;;;;;;5054572;28;20028;-78
2021/01/29 04:03:25;;;;;;;6.63;4.32;;;-0.50;99.90;;;;;;5054829;28;20045;-78
2021/01/29 04:06:12;;;;;;;7.75;5.32;;;-0.60;99.90;;;;;;5054378;28;20021;-82
2021/01/29 04:09:00;;;;;;;8.50;4.70;;;-0.60;99.90;;;;;;5056185;28;20463;-82
2021/01/29 04:11:32;;;;;;;8.15;4.78;;;-0.60;99.90;;;;;;5055753;28;20017;-81
2021/01/29 04:14:02;;;;;;;7.45;5.22;;;-0.60;99.90;;;;;;5055904;28;20021;-82
2021/01/29 04:16:39;;;;;;;6.72;4.78;;;-0.60;99.90;;;;;;5055945;28;20021;-82
2021/01/29 04:19:13;;;;;;;9.40;5.10;;;-0.60;99.90;;;;;;5054884;28;20017;-82
2021/01/29 04:21:47;;;;;;;7.68;4.63;;;-0.60;99.90;;;;;;5054844;28;20028;-82
2021/01/29 04:24:27;;;;;;;8.40;5.13;;;-0.60;99.90;;;;;;5054328;28;20120;-82
2021/01/29 04:27:26;;;;;;;8.15;5.72;;;-0.60;99.90;;;;;;5055472;28;20044;-82
2021/01/29 04:29:55;;;;;;;8.32;5.35;;;-0.60;99.90;;;;;;5044096;28;20044;-82
2021/01/29 04:32:25;;;;;;;10.88;5.93;;;-0.60;99.90;;;;;;5055949;28;20348;-82
2021/01/29 04:34:55;;;;;;;9.02;5.50;;;-0.60;99.90;;;;;;5053976;28;20475;-78
2021/01/29 04:37:49;;;;;;;9.68;5.15;;;-0.60;99.90;;;;;;5052659;28;20536;-78
2021/01/29 04:40:45;;;;;;;6.38;4.85;;;-0.60;99.90;;;;;;5053828;28;20147;-78
2021/01/29 04:43:33;;;;;;;8.63;5.32;;;-0.60;99.90;;;;;;5053878;28;20029;-78
2021/01/29 04:46:17;;;;;;;9.55;6.10;;;-0.60;99.90;;;;;;5053479;28;20062;-78
2021/01/29 04:49:30;;;;;;;9.82;5.93;;;-0.60;99.90;;;;;;5053996;28;20758;-79
2021/01/29 04:52:14;;;;;;;;;;;-0.60;99.90;;;;;;5015556;28;20025;-79
2021/01/29 04:54:46;;;;;;;9.30;5.80;;;-0.60;99.90;;;;;;5015103;28;19905;-78
2021/01/29 04:57:22;;;;;;;9.20;6.32;;;-0.60;99.90;;;;;;5047007;28;20039;-78
2021/01/29 04:59:58;;;;;;;10.98;6.70;;;-0.60;99.90;;;;;;5053421;28;20028;-78
2021/01/29 05:02:44;;;;;;;10.35;6.13;;;-0.70;99.90;;;;;;5051985;28;20072;-78
2021/01/29 05:05:37;;;;;;;11.95;6.95;;;-0.70;99.90;;;;;;5052282;28;20025;-78
2021/01/29 05:08:22;;;;;;;;;;;-0.70;99.90;;;;;;5052265;28;20032;-79
2021/01/29 05:10:58;;;;;;;10.70;7.38;;;-0.70;99.90;;;;;;5053328;28;19905;-79
2021/01/29 05:13:51;;;;;;;10.80;6.97;;;-0.70;99.90;;;;;;5053866;28;20025;-79
2021/01/29 05:16:40;;;;;;;11.82;7.15;;;-0.70;99.90;;;;;;5053184;28;20025;-78
2021/01/29 05:19:29;;;;;;;11.65;7.32;;;-0.70;99.90;;;;;;5053442;28;20060;-79
2021/01/29 05:22:01;;;;;;;12.25;7.78;;;-0.70;99.90;;;;;;5053363;28;20025;-78
2021/01/29 05:25:11;;;;;;;13.48;7.55;;;-0.80;99.90;;;;;;5051594;28;20025;-80
2021/01/29 05:28:01;;;;;;;11.23;7.97;;;-0.80;99.90;;;;;;5050286;28;20438;-79
2021/01/29 05:30:51;;;;;;;12.48;7.93;;;-0.80;99.90;;;;;;5053293;28;20021;-80
2021/01/29 05:33:59;;;;;;;12.23;7.35;;;-0.80;99.90;;;;;;5051752;28;20051;-79
2021/01/29 05:36:46;;;;;;;12.07;8.65;;;-0.80;99.90;;;;;;5043970;28;20429;-86
2021/01/29 05:39:33;;;;;;;12.20;8.18;;;-0.80;99.90;;;;;;5056231;28;20021;-85
2021/01/29 05:42:21;;;;;;;14.85;8.90;;;-0.80;99.90;;;;;;5056756;28;20036;-82
2021/01/29 05:44:52;;;;;;;14.05;8.65;;;-0.90;99.90;;;;;;5054982;28;20020;-82
2021/01/29 05:47:40;;;;;;;14.13;9.63;;;-0.90;99.90;;;;;;5054750;28;20098;-83
2021/01/29 05:50:09;;;;;;;15.30;9.25;;;-1.00;99.90;;;;;;5055143;28;20036;-83
2021/01/29 05:53:22;;;;;;;15.65;9.40;;;-1.00;99.90;;;;;;5054094;28;20057;-84
2021/01/29 05:56:00;;;;;;;14.52;9.48;;;-1.10;99.90;;;;;;5053754;28;20135;-83
2021/01/29 05:58:38;;;;;;;15.25;9.27;;;-1.00;99.90;;;;;;5053925;28;20442;-84
2021/01/29 06:01:20;;;;;;;13.45;8.63;;;-0.90;99.90;;;;;;5052565;28;20428;-84
2021/01/29 06:04:03;;;;;;;13.50;8.73;;;-0.40;99.90;;;;;;5053955;28;20040;-83
2021/01/29 06:06:48;;;;;;;12.18;8.30;;;0.00;99.90;;;;;;5054017;28;20036;-84
2021/01/29 06:09:36;;;;;;;14.98;8.88;;;0.50;99.90;;;;;;5052461;28;20061;-84
2021/01/29 06:12:44;;;;;;;12.95;8.88;;;0.70;99.90;;;;;;5041249;28;20043;-80
2021/01/29 06:15:36;;;;;;;13.63;9.00;;;0.70;99.90;;;;;;5050172;28;20029;-80
2021/01/29 06:18:27;;;;;;;14.65;9.55;;;0.70;99.90;;;;;;5051940;28;20021;-80
2021/01/29 06:20:56;;;;;;;14.02;9.82;;;0.60;99.90;;;;;;5051638;28;20029;-81
2021/01/29 06:23:50;;;;;;;16.15;9.75;;;0.60;99.90;;;;;;5051610;28;20039;-79
2021/01/29 06:26:24;;;;;;;18.48;10.95;;;0.60;99.90;;;;;;5050434;28;20083;-80
2021/01/29 06:29:19;;;;;;;18.27;11.57;;;0.50;99.90;;;;;;5050445;28;20051;-79
2021/01/29 06:32:00;;;;;;;19.90;11.32;;;0.40;99.90;;;;;;5052206;28;20017;-80
2021/01/29 06:34:44;;;;;;;19.13;11.32;;;0.30;99.90;;;;;;5052606;28;20024;-80
2021/01/29 06:37:20;;;;;;;17.15;11.73;;;0.20;99.90;;;;;;5051077;28;20056;-79
2021/01/29 06:39:58;;;;;;;16.70;10.35;;;0.20;99.90;;;;;;5051155;28;20025;-79
2021/01/29 06:42:29;;;;;;;16.98;10.23;;;0.10;99.90;;;;;;5053424;28;20048;-82
2021/01/29 06:45:36;;;;;;;18.38;10.20;;;0.20;99.90;;;;;;5059832;28;20036;-84
2021/01/29 06:48:23;;;;;;;18.27;10.68;;;0.20;99.90;;;;;;5048905;28;20049;-83
2021/01/29 06:50:49;;;;;;;19.63;11.18;;;0.20;99.90;;;;;;5056890;28;20425;-83
2021/01/29 06:53:36;;;;;;;17.52;11.27;;;0.20;99.90;;;;;;5058003;28;20024;-84
2021/01/29 06:56:27;;;;;;;17.95;10.77;;;0.30;99.90;;;;;;5055683;28;20124;-83
2021/01/29 06:59:05;;;;;;;16.85;10.55;;;1.00;99.90;;;;;;5057436;28;20053;-85
2021/01/29 07:01:49;;;;;;;17.38;9.98;;;2.00;99.90;;;;;;5057187;28;20045;-86
2021/01/29 07:04:42;;;;;;;13.65;9.80;;;3.20;99.90;;;;;;5056010;28;20033;-86
2021/01/29 07:07:40;;;;;;;15.68;10.10;;;3.80;99.90;;;;;;5056588;28;20104;-79
2021/01/29 07:10:29;;;;;;;14.00;9.57;;;4.30;99.90;;;;;;5046235;28;20033;-79
2021/01/29 07:13:33;;;;;;;13.30;9.15;;;5.00;99.90;;;;;;5055560;28;20029;-85
2021/01/29 07:16:33;;;;;;;11.93;8.68;;;5.00;99.90;;;;;;5058389;28;20059;-85
2021/01/29 07:19:24;;;;;;;14.23;9.65;;;4.70;99.90;;;;;;5057988;28;20479;-86
2021/01/29 07:22:29;;;;;;;15.45;10.00;;;4.20;99.90;;;;;;5057320;28;20035;-86
2021/01/29 07:25:14;;;;;;;15.52;9.90;;;3.80;99.90;;;;;;5046153;28;20479;-86
2021/01/29 07:27:51;;;;;;;13.77;9.68;;;3.60;99.90;;;;;;5057493;28;20021;-87
2021/01/29 07:30:35;;;;;;;14.02;10.13;;;3.50;99.90;;;;;;5053057;28;20028;-79
2021/01/29 07:33:14;;;;;;;17.80;10.43;;;3.40;99.90;;;;;;5053210;28;20427;-80
2021/01/29 07:36:03;;;;;;;16.60;10.95;;;3.40;99.90;;;;;;5054497;28;20029;-80
2021/01/29 07:39:21;;;;;;;20.05;12.52;;;3.40;99.90;;;;;;5053183;28;20090;-79
2021/01/29 07:42:01;;;;;;;18.23;11.57;;;3.20;99.90;;;;;;5055188;28;20029;-87
2021/01/29 07:44:53;;;;;;;17.00;11.23;;;3.10;99.90;;;;;;5055678;28;20029;-86
2021/01/29 07:47:43;;;;;;;18.92;11.18;;;2.90;99.90;;;;;;5057483;28;20395;-85
2021/01/29 07:50:43;;;;;;;16.90;10.68;;;2.80;99.90;;;;;;5055473;28;20032;-87
2021/01/29 07:53:18;;;;;;;16.38;10.68;;;2.70;99.90;;;;;;5056117;28;20037;-86
2021/01/29 07:55:58;;;;;;;17.73;11.30;;;2.60;99.90;;;;;;5056354;28;20025;-86
2021/01/29 07:59:00;;;;;;;18.05;11.60;;;2.50;99.90;;;;;;5057024;28;20091;-87
2021/01/29 08:01:30;;;;;;;21.23;12.35;;;2.50;99.90;;;;;;5057845;28;20048;-87
2021/01/29 08:04:11;;;;;;;22.35;12.88;;;2.50;99.90;;;;;;5056063;28;20379;-87
2021/01/29 08:06:48;;;;;;;17.70;11.77;;;2.50;99.90;;;;;;5056188;28;20387;-85
2021/01/29 08:09:35;;;;;;;20.45;12.30;;;2.50;99.90;;;;;;5055692;28;20025;-85
2021/01/29 08:12:06;;;;;;;24.23;12.15;;;2.40;99.90;;;;;;5055430;28;20490;-83
2021/01/29 08:14:45;;;;;;;23.38;12.55;;;2.40;99.90;;;;;;5055993;28;20051;-86
2021/01/29 08:17:35;;;;;;;18.63;11.60;;;2.30;99.90;;;;;;5054019;28;20036;-88
2021/01/29 08:20:25;;;;;;;20.48;12.07;;;2.20;99.90;;;;;;5055485;28;20029;-86
2021/01/29 08:23:11;;;;;;;20.63;12.27;;;2.20;99.90;;;;;;5055173;28;20017;-82
2021/01/29 08:25:59;;;;;;;21.67;13.20;;;2.20;99.90;;;;;;5055709;28;20075;-83
2021/01/29 08:28:49;;;;;;;21.15;12.45;;;2.40;99.90;;;;;;5053703;28;20455;-83
2021/01/29 08:31:43;;;;;;;18.77;11.73;;;2.40;99.90;;;;;;5053669;28;20028;-85
2021/01/29 08:34:47;;;;;;;20.73;12.00;;;2.50;99.90;;;;;;5055310;28;20021;-85
2021/01/29 08:37:28;;;;;;;19.45;12.73;;;2.50;99.90;;;;;;5054401;28;20025;-86
2021/01/29 08:40:19;;;;;;;20.20;12.45;;;2.50;99.90;;;;;;5053983;28;20021;-87
2021/01/29 08:43:03;;;;;;;19.48;12.55;;;2.50;99.90;;;;;;5054861;28;20033;-88
2021/01/29 08:45:51;;;;;;;23.58;13.18;;;2.60;99.90;;;;;;5053461;28;20029;-88
2021/01/29 08:48:18;;;;;;;21.98;13.73;;;2.50;99.90;;;;;;5054075;28;20052;-86
2021/01/29 08:51:11;;;;;;;22.40;13.30;;;2.50;99.90;;;;;;5055870;28;20025;-87
2021/01/29 08:54:04;;;;;;;24.67;14.57;;;2.50;99.90;;;;;;5055244;28;20029;-87
2021/01/29 08:56:38;;;;;;;22.17;13.45;;;2.40;99.90;;;;;;5053193;28;20072;-87
2021/01/29 08:59:08;;;;;;;19.95;12.80;;;2.40;99.90;;;;;;5052780;28;20059;-88
2021/01/29 09:01:44;;;;;;;21.60;13.25;;;2.30;99.90;;;;;;5053073;28;20051;-86
2021/01/29 09:04:25;;;;;;;22.77;13.32;;;2.30;99.90;;;;;;5054785;28;20475;-86
2021/01/29 09:06:55;;;;;;;18.77;11.80;;;2.30;99.90;;;;;;5052763;28;20025;-85
2021/01/29 09:09:27;;;;;;;22.13;12.35;;;2.30;99.90;;;;;;5054342;28;20059;-84
2021/01/29 09:11:56;;;;;;;19.63;12.05;;;2.40;99.90;;;;;;5053488;28;20033;-84
2021/01/29 09:14:49;;;;;;;17.13;10.50;;;2.40;99.90;;;;;;5052704;28;20084;-85
2021/01/29 09:17:18;;;;;;;;;;;2.50;99.90;;;;;;5053326;28;20036;-85
2021/01/29 09:19:59;;;;;;;19.08;10.93;;;2.60;99.90;;;;;;5052903;28;19909;-88
2021/01/29 09:22:34;;;;;;;20.85;12.55;;;2.60;99.90;;;;;;5054499;28;20096;-88
2021/01/29 09:25:17;;;;;;;21.40;13.05;;;2.60;99.90;;;;;;5054442;28;20138;-88
2021/01/29 09:28:14;;;;;;;20.38;12.25;;;2.60;99.90;;;;;;5052954;28;20025;-86
2021/01/29 09:30:56;;;;;;;21.88;12.50;;;2.60;99.90;;;;;;5053535;28;20037;-86
2021/01/29 09:34:08;;;;;;;22.33;12.93;;;2.50;99.90;;;;;;5053108;28;20021;-87
2021/01/29 09:36:39;;;;;;;20.70;12.57;;;2.50;99.90;;;;;;5030678;28;20030;-86
2021/01/29 09:39:07;;;;;;;26.58;13.88;;;2.50;99.90;;;;;;5032132;28;20036;-86
2021/01/29 09:41:47;;;;;;;21.38;12.85;;;2.30;99.90;;;;;;5031546;28;20127;-86
2021/01/29 09:44:22;;;;;;;22.92;13.18;;;2.30;99.90;;;;;;5031546;28;20037;-87
2021/01/29 09:46:54;;;;;;;24.38;14.85;;;2.30;99.90;;;;;;5031783;28;20025;-88
2021/01/29 09:49:32;;;;;;;22.15;13.38;;;2.30;99.90;;;;;;5032034;28;20030;-88
2021/01/29 09:52:21;;;;;;;25.17;14.40;;;2.30;99.90;;;;;;5014421;28;20033;-87
2021/01/29 09:55:04;;;;;;;29.27;14.65;;;2.10;99.90;;;;;;5025755;28;20409;-87
2021/01/29 09:57:33;;;;;;;23.05;14.18;;;2.00;99.90;;;;;;5031235;28;20108;-87
2021/01/29 10:00:08;;;;;;;25.63;14.95;;;1.80;99.90;;;;;;5014191;28;20073;-86
2021/01/29 10:02:59;;;;;;;25.08;15.40;;;1.70;99.90;;;;;;5031479;28;20133;-87
2021/01/29 10:05:40;;;;;;;22.60;13.82;;;1.60;99.90;;;;;;5031792;28;20057;-88
2021/01/29 10:08:15;;;;;;;23.85;14.38;;;1.50;99.90;;;;;;5050757;28;20033;-88
2021/01/29 10:10:50;;;;;;;25.13;15.30;;;1.40;99.90;;;;;;5052100;28;20021;-86
2021/01/29 10:13:21;;;;;;;26.17;14.90;;;1.40;99.90;;;;;;5052520;28;20420;-87
2021/01/29 10:16:07;;;;;;;27.77;15.82;;;1.30;99.90;;;;;;5063676;28;20029;-86
2021/01/29 10:18:36;;;;;;;25.73;15.90;;;1.30;99.90;;;;;;5051793;28;20044;-88
2021/01/29 10:21:13;;;;;;;28.58;16.35;;;1.30;99.90;;;;;;5053772;28;20108;-89
2021/01/29 10:23:48;;;;;;;28.65;15.48;;;1.30;99.90;;;;;;5059372;28;20052;-88
2021/01/29 10:26:25;;;;;;;31.95;16.77;;;1.20;99.90;;;;;;5070460;28;20392;-87
2021/01/29 10:28:51;;;;;;;26.60;15.25;;;1.10;99.90;;;;;;5068722;28;20021;-87
2021/01/29 10:31:21;;;;;;;28.48;15.90;;;1.00;99.90;;;;;;5059027;28;20127;-88
2021/01/29 10:33:50;;;;;;;30.48;16.25;;;0.90;99.90;;;;;;5061559;28;20027;-86
2021/01/29 10:36:29;;;;;;;27.73;16.98;;;0.80;99.90;;;;;;5061145;28;20025;-88
2021/01/29 10:39:03;;;;;;;30.08;16.00;;;0.70;99.90;;;;;;5053877;28;20025;-88
2021/01/29 10:41:32;;;;;;;28.55;15.82;;;0.60;99.90;;;;;;5054730;28;20033;-88
2021/01/29 10:44:12;;;;;;;25.80;14.70;;;0.60;99.90;;;;;;5053535;28;20078;-85
2021/01/29 10:47:13;;;;;;;28.17;16.20;;;0.60;99.90;;;;;;5052772;28;20079;-85
2021/01/29 10:50:05;;;;;;;30.23;16.52;;;0.50;99.90;;;;;;5053032;28;20025;-85
2021/01/29 10:52:40;;;;;;;27.00;15.38;;;0.50;99.90;;;;;;5051533;28;20032;-88
2021/01/29 10:55:19;;;;;;;29.70;15.98;;;0.50;99.90;;;;;;5051903;28;20379;-86
2021/01/29 10:57:55;;;;;;;29.13;17.55;;;0.40;99.90;;;;;;5051827;28;20474;-87
2021/01/29 11:00:25;;;;;;;26.30;15.35;;;0.40;99.90;;;;;;5051933;28;20028;-88
2021/01/29 11:03:17;;;;;;;31.10;15.95;;;0.40;99.90;;;;;;5052477;28;20052;-88
2021/01/29 11:05:46;;;;;;;28.33;15.50;;;0.40;99.90;;;;;;5052812;28;20032;-87
2021/01/29 11:08:23;;;;;;;30.50;16.83;;;0.40;99.90;;;;;;5051915;28;20056;-87
2021/01/29 11:11:07;;;;;;;29.52;16.52;;;0.30;99.90;;;;;;5060551;28;20033;-86
2021/01/29 11:14:00;;;;;;;26.48;14.88;;;0.30;99.90;;;;;;5058071;28;20159;-89
2021/01/29 11:16:39;;;;;;;28.65;16.20;;;0.40;99.90;;;;;;5053358;28;20498;-87
2021/01/29 11:19:10;;;;;;;27.55;16.70;;;0.40;99.90;;;;;;5052076;28;20067;-87
2021/01/29 11:22:03;;;;;;;32.90;16.83;;;0.40;99.90;;;;;;5050982;28;20053;-85
2021/01/29 11:24:49;;;;;;;28.83;16.42;;;0.50;99.90;;;;;;5053941;28;20029;-84
2021/01/29 11:27:20;;;;;;;28.52;15.85;;;0.60;99.90;;;;;;5050979;28;20184;-85
2021/01/29 11:29:55;;;;;;;28.58;15.93;;;0.60;99.90;;;;;;5050311;28;20433;-85
2021/01/29 11:32:26;;;;;;;28.33;16.50;;;0.70;99.90;;;;;;5054140;28;20071;-85
2021/01/29 11:35:36;;;;;;;30.08;16.70;;;0.70;99.90;;;;;;5055531;28;20033;-86
2021/01/29 11:38:26;;;;;;;33.78;15.95;;;0.70;99.90;;;;;;5042000;28;20044;-86
2021/01/29 11:41:00;;;;;;;27.42;15.50;;;0.80;99.90;;;;;;5055239;28;20029;-84
2021/01/29 11:43:51;;;;;;;27.83;16.48;;;0.70;99.90;;;;;;5053696;28;20032;-84
2021/01/29 11:46:25;;;;;;;29.42;16.25;;;0.70;99.90;;;;;;5054995;28;20364;-86
2021/01/29 11:48:55;;;;;;;25.38;15.45;;;0.70;99.90;;;;;;5054332;28;20142;-85
2021/01/29 11:51:38;;;;;;;25.42;14.70;;;0.70;99.90;;;;;;5054519;28;20028;-84
2021/01/29 11:54:12;;;;;;;26.98;15.35;;;0.70;99.90;;;;;;5055128;28;20482;-84
2021/01/29 11:56:40;;;;;;;26.00;14.07;;;0.70;99.90;;;;;;5053703;28;20025;-86
2021/01/29 11:59:31;;;;;;;24.85;13.65;;;0.60;99.90;;;;;;5053656;28;20037;-85
2021/01/29 12:02:06;;;;;;;24.30;13.98;;;0.60;99.90;;;;;;5054139;28;20040;-85
2021/01/29 12:04:51;;;;;;;24.20;14.00;;;0.60;99.90;;;;;;5054373;28;20024;-85
2021/01/29 12:07:36;;;;;;;23.77;13.98;;;0.60;99.90;;;;;;5053937;28;20475;-85
2021/01/29 12:10:10;;;;;;;25.25;14.88;;;0.60;99.90;;;;;;5055032;28;20037;-85
2021/01/29 12:12:48;;;;;;;26.63;15.30;;;0.50;99.90;;;;;;5053982;28;20025;-84
2021/01/29 12:15:21;;;;;;;24.88;14.38;;;0.50;99.90;;;;;;5055275;28;20098;-83
2021/01/29 12:17:51;;;;;;;;;;;0.60;99.90;;;;;;5054586;28;20032;-84
2021/01/29 12:20:25;;;;;;;21.42;13.68;;;0.60;99.90;;;;;;5055412;28;19973;-85
2021/01/29 12:23:24;;;;;;;26.23;15.05;;;0.60;99.90;;;;;;5055183;28;20032;-85
2021/01/29 12:25:53;;;;;;;25.30;14.57;;;0.60;99.90;;;;;;5055576;28;20036;-85
2021/01/29 12:28:32;;;;;;;30.48;16.23;;;0.60;99.90;;;;;;5053554;28;20036;-84
2021/01/29 12:31:34;;;;;;;27.35;15.32;;;0.60;99.90;;;;;;5054463;28;20039;-84
2021/01/29 12:34:20;;;;;;;25.90;14.75;;;0.60;99.90;;;;;;5055038;28;20024;-85
2021/01/29 12:37:17;;;;;;;25.52;14.40;;;0.70;99.90;;;;;;5053803;28;20036;-85
2021/01/29 12:39:51;;;;;;;23.13;14.02;;;0.70;99.90;;;;;;5053735;28;20140;-84
2021/01/29 12:42:24;;;;;;;28.02;15.40;;;0.70;99.90;;;;;;5052579;28;20671;-84
2021/01/29 12:45:06;;;;;;;27.45;16.08;;;0.80;99.90;;;;;;5053403;28;20123;-83
2021/01/29 12:47:48;;;;;;;27.88;15.30;;;0.80;99.90;;;;;;5054615;28;20025;-84
2021/01/29 12:50:22;;;;;;;30.05;16.27;;;0.80;99.90;;;;;;5054819;28;20026;-84
2021/01/29 12:52:59;;;;;;;26.90;15.82;;;0.80;99.90;;;;;;5054546;28;20021;-84
2021/01/29 12:55:34;;;;;;;24.35;15.02;;;0.80;99.90;;;;;;5054636;28;20104;-87
2021/01/29 12:58:11;;;;;;;28.25;15.57;;;0.80;99.90;;;;;;5052963;28;20028;-84
2021/01/29 13:00:41;;;;;;;27.23;15.77;;;0.80;99.90;;;;;;5054931;28;20018;-86
2021/01/29 13:03:36;;;;;;;29.92;15.73;;;0.80;99.90;;;;;;5052879;28;20407;-84
2021/01/29 13:06:49;;;;;;;29.30;15.70;;;0.80;99.90;;;;;;5054135;28;20072;-85
2021/01/29 13:09:48;;;;;;;28.63;16.43;;;0.80;99.90;;;;;;5054209;28;20029;-86
2021/01/29 13:12:47;;;;;;;32.20;16.70;;;0.70;99.90;;;;;;5052539;28;20032;-85
2021/01/29 13:15:44;;;;;;;28.58;16.70;;;0.70;99.90;;;;;;5052893;28;20464;-85
2021/01/29 13:18:38;;;;;;;29.90;16.40;;;0.60;99.90;;;;;;5054357;28;20048;-85
2021/01/29 13:21:08;;;;;;;29.48;16.33;;;0.60;99.90;;;;;;5052831;28;20442;-85
2021/01/29 13:23:34;;;;;;;28.45;16.08;;;0.60;99.90;;;;;;5054685;28;20033;-85
2021/01/29 13:26:03;;;;;;;29.27;16.55;;;0.50;99.90;;;;;;5052029;28;20065;-86
2021/01/29 13:28:33;;;;;;;31.05;16.90;;;0.50;99.90;;;;;;5054586;28;20048;-89
2021/01/29 13:31:20;;;;;;;28.50;16.17;;;0.50;99.90;;;;;;5053225;28;20106;-84
2021/01/29 13:33:52;;;;;;;31.33;17.25;;;0.50;99.90;;;;;;5056404;28;20048;-88
2021/01/29 13:36:31;;;;;;;32.60;17.85;;;0.50;99.90;;;;;;5053244;28;20055;-87
2021/01/29 13:39:22;;;;;;;28.38;15.93;;;0.50;99.90;;;;;;5065859;28;20033;-87
2021/01/29 13:41:56;;;;;;;32.38;17.98;;;0.40;99.90;;;;;;5052885;28;20025;-87
2021/01/29 13:44:37;;;;;;;33.00;17.63;;;0.40;99.90;;;;;;5058223;28;20016;-88
2021/01/29 13:47:07;;;;;;;31.27;16.77;;;0.40;99.90;;;;;;5055482;28;20116;-88
2021/01/29 13:49:36;;;;;;;29.65;17.65;;;0.40;99.90;;;;;;5055425;28;20035;-88